Time;durP1;ratioP1;P1;durP2;ratioP2;P2;SDS_P1;SDS_P2;PMS_P1;PMS_P2;Temp;Humidity;BMP_temperature;BMP_pressure;BME280_temperature;BME280_humidity;BME280_pressure;Samples;Min_cycle;Max_cycle;Signal;HPM_P1;HPM_P2
2023/03/15 00:00:41;;;;;;;35.67;7.47;;;2.90;99.90;;;;;;5029723;28;20083;-84
2023/03/15 00:03:07;;;;;;;15.20;2.65;;;2.90;99.90;;;;;;5004900;28;20041;-82
2023/03/15 00:05:32;;;;;;;18.50;2.95;;;2.90;99.90;;;;;;5007914;28;20386;-83
2023/03/15 00:07:58;;;;;;;26.63;3.22;;;2.90;99.90;;;;;;4999164;28;20478;-84
2023/03/15 00:10:24;;;;;;;19.63;2.65;;;2.90;99.90;;;;;;5006778;28;20034;-85
2023/03/15 00:12:49;;;;;;;17.10;3.10;;;2.90;99.90;;;;;;5004299;28;20026;-84
2023/03/15 00:15:15;;;;;;;16.27;3.00;;;3.00;99.90;;;;;;5014907;28;20121;-81
2023/03/15 00:17:41;;;;;;;13.85;4.22;;;2.90;99.90;;;;;;5009370;28;20025;-84
2023/03/15 00:20:07;;;;;;;18.25;2.83;;;2.90;99.90;;;;;;5011429;28;20037;-84
2023/03/15 00:22:33;;;;;;;15.32;3.15;;;2.90;99.90;;;;;;5001042;28;20024;-85
2023/03/15 00:24:59;;;;;;;19.02;3.63;;;2.80;99.90;;;;;;5010020;28;20093;-85
2023/03/15 00:27:25;;;;;;;19.00;2.95;;;2.90;99.90;;;;;;5000152;28;20124;-90
2023/03/15 00:29:51;;;;;;;23.85;3.67;;;2.80;99.90;;;;;;5010466;28;20033;-83
2023/03/15 00:32:16;;;;;;;44.92;4.65;;;2.90;99.90;;;;;;5007780;28;20044;-84
2023/03/15 00:34:47;;;;;;;19.92;2.97;;;2.80;99.90;;;;;;5004925;28;20030;-86
2023/03/15 00:37:18;;;;;;;13.70;2.85;;;2.90;99.90;;;;;;5003819;28;20034;-86
2023/03/15 00:39:45;;;;;;;19.67;3.10;;;2.80;99.90;;;;;;5009019;28;22595;-84
2023/03/15 00:42:14;;;;;;;22.58;3.47;;;2.90;99.90;;;;;;5008135;28;20029;-87
2023/03/15 00:44:49;;;;;;;26.80;4.80;;;2.90;99.90;;;;;;5014341;28;20046;-79
2023/03/15 00:47:14;;;;;;;21.70;2.78;;;2.80;99.90;;;;;;5011160;28;20030;-85
2023/03/15 00:49:41;;;;;;;15.20;3.55;;;2.80;99.90;;;;;;5005166;28;20626;-81
2023/03/15 00:52:07;;;;;;;17.48;4.10;;;2.80;99.90;;;;;;5009043;28;20026;-85
2023/03/15 00:54:33;;;;;;;13.68;3.00;;;2.80;99.90;;;;;;5013978;28;20018;-84
2023/03/15 00:57:02;;;;;;;22.90;4.22;;;2.80;99.90;;;;;;5009607;28;20026;-84
2023/03/15 00:59:34;;;;;;;13.43;2.45;;;2.80;99.90;;;;;;5009633;28;20366;-90
2023/03/15 01:02:02;;;;;;;12.95;3.47;;;2.80;99.90;;;;;;5022316;28;20030;-86
2023/03/15 01:04:27;;;;;;;14.90;2.53;;;2.80;99.90;;;;;;5007627;28;20032;-89
2023/03/15 01:06:53;;;;;;;11.02;3.30;;;2.80;99.90;;;;;;5012758;28;20041;-85
2023/03/15 01:09:19;;;;;;;13.90;2.90;;;2.70;99.90;;;;;;5008966;28;20082;-81
2023/03/15 01:11:44;;;;;;;15.00;3.13;;;2.80;99.90;;;;;;5016856;28;20049;-85
2023/03/15 01:14:10;;;;;;;23.33;2.88;;;2.70;99.90;;;;;;5005822;28;20025;-82
2023/03/15 01:16:36;;;;;;;22.75;3.35;;;2.70;99.90;;;;;;5010649;28;20117;-84
2023/03/15 01:19:02;;;;;;;28.83;3.75;;;2.70;99.90;;;;;;5009521;28;20045;-84
2023/03/15 01:21:30;;;;;;;39.55;4.32;;;2.70;99.90;;;;;;5009376;28;20018;-89
2023/03/15 01:23:56;;;;;;;17.25;3.03;;;2.70;99.90;;;;;;5013800;28;20021;-85
2023/03/15 01:26:22;;;;;;;24.88;3.35;;;2.60;99.90;;;;;;5023113;28;20056;-84
2023/03/15 01:28:48;;;;;;;21.13;3.28;;;2.60;99.90;;;;;;5014165;28;20036;-84
2023/03/15 01:31:26;;;;;;;24.05;3.45;;;2.60;99.90;;;;;;5005270;28;20026;-81
2023/03/15 01:33:53;;;;;;;15.57;3.13;;;2.60;99.90;;;;;;5010783;28;20061;-85
2023/03/15 01:36:19;;;;;;;14.82;3.25;;;2.60;99.90;;;;;;5017503;28;20044;-82
2023/03/15 01:38:45;;;;;;;21.23;3.92;;;2.50;99.90;;;;;;5008278;28;20026;-81
2023/03/15 01:41:12;;;;;;;22.48;3.30;;;2.50;99.90;;;;;;5004000;28;20025;-87
2023/03/15 01:43:38;;;;;;;26.38;3.40;;;2.50;99.90;;;;;;5004768;28;20033;-79
2023/03/15 01:46:16;;;;;;;26.33;4.47;;;2.50;99.90;;;;;;5008630;28;20029;-82
2023/03/15 01:49:13;;;;;;;19.50;2.95;;;2.50;99.90;;;;;;5005339;28;20192;-83
2023/03/15 01:51:49;;;;;;;23.50;4.70;;;2.50;99.90;;;;;;5010038;28;20028;-85
2023/03/15 01:54:15;;;;;;;;;;;2.50;99.90;;;;;;5010347;28;20026;-82
2023/03/15 01:56:46;;;;;;;12.57;3.33;;;2.50;99.90;;;;;;5007490;28;20252;-80
2023/03/15 01:59:17;;;;;;;17.63;2.85;;;2.50;99.90;;;;;;5008504;28;20034;-82
2023/03/15 02:01:44;;;;;;;19.23;3.22;;;2.40;99.90;;;;;;5008785;28;20407;-86
2023/03/15 02:04:14;;;;;;;20.70;3.33;;;2.50;99.90;;;;;;5008523;28;20777;-84
2023/03/15 02:06:45;;;;;;;24.80;3.00;;;2.50;99.90;;;;;;5005521;28;20144;-80
2023/03/15 02:09:13;;;;;;;15.20;2.95;;;2.50;99.90;;;;;;5009161;28;20021;-84
2023/03/15 02:11:40;;;;;;;16.75;2.50;;;2.50;99.90;;;;;;5011807;28;20021;-80
2023/03/15 02:14:08;;;;;;;27.05;4.78;;;2.50;99.90;;;;;;5007834;28;20049;-83
2023/03/15 02:16:34;;;;;;;27.90;3.72;;;2.50;99.90;;;;;;5002218;28;20026;-84
2023/03/15 02:19:00;;;;;;;13.10;4.03;;;2.50;99.90;;;;;;5002368;28;20030;-81
2023/03/15 02:21:36;;;;;;;20.40;3.25;;;2.50;99.90;;;;;;5007140;28;20485;-85
2023/03/15 02:24:08;;;;;;;19.85;2.92;;;2.50;99.90;;;;;;5001250;28;20108;-84
2023/03/15 02:26:42;;;;;;;17.92;2.92;;;2.50;99.90;;;;;;5002817;28;20355;-83
2023/03/15 02:29:08;;;;;;;7.53;2.72;;;2.50;99.90;;;;;;5002923;28;20026;-86
2023/03/15 02:31:36;;;;;;;11.65;2.30;;;2.40;99.90;;;;;;5013142;28;20075;-87
2023/03/15 02:34:04;;;;;;;18.67;3.03;;;2.40;99.90;;;;;;5014292;28;20033;-86
2023/03/15 02:36:36;;;;;;;15.68;3.13;;;2.40;99.90;;;;;;5007315;28;20029;-92
2023/03/15 02:39:14;;;;;;;17.13;4.15;;;2.50;99.90;;;;;;5010026;28;20030;-86
2023/03/15 02:41:43;;;;;;;27.92;4.63;;;2.40;99.90;;;;;;5005703;28;20026;-82
2023/03/15 02:44:21;;;;;;;16.63;2.83;;;2.40;99.90;;;;;;5006660;28;20028;-84
2023/03/15 02:46:51;;;;;;;16.83;2.97;;;2.40;99.90;;;;;;5005975;28;20090;-85
2023/03/15 02:49:20;;;;;;;16.05;2.95;;;2.40;99.90;;;;;;5003749;28;20034;-83
2023/03/15 02:51:46;;;;;;;26.23;3.90;;;2.40;99.90;;;;;;5004502;28;20034;-86
2023/03/15 02:54:12;;;;;;;19.17;3.28;;;2.40;99.90;;;;;;4990045;28;20094;-88
2023/03/15 02:56:37;;;;;;;28.70;3.25;;;2.40;99.90;;;;;;5002468;28;20025;-83
2023/03/15 02:59:03;;;;;;;16.20;3.13;;;2.40;99.90;;;;;;5039776;28;20049;-82
2023/03/15 03:01:30;;;;;;;25.98;4.28;;;2.40;99.90;;;;;;4996641;28;20021;-83
2023/03/15 03:03:58;;;;;;;19.30;2.63;;;2.40;99.90;;;;;;5059739;28;20014;-89
2023/03/15 03:06:30;;;;;;;19.88;3.40;;;2.40;99.90;;;;;;5013111;28;20046;-87
2023/03/15 03:08:56;;;;;;;20.02;3.40;;;2.30;99.90;;;;;;5004099;28;20032;-81
2023/03/15 03:11:21;;;;;;;18.40;3.72;;;2.30;99.90;;;;;;5009604;28;20370;-83
2023/03/15 03:13:47;;;;;;;15.13;3.00;;;2.30;99.90;;;;;;5001621;28;20026;-81
2023/03/15 03:16:12;;;;;;;14.32;3.45;;;2.30;99.90;;;;;;5013852;28;20081;-83
2023/03/15 03:18:38;;;;;;;20.58;3.15;;;2.30;99.90;;;;;;5007714;28;20374;-82
2023/03/15 03:21:06;;;;;;;19.35;3.40;;;2.40;99.90;;;;;;5007709;28;20416;-81
2023/03/15 03:23:33;;;;;;;23.05;3.97;;;2.40;99.90;;;;;;5002174;28;20021;-85
2023/03/15 03:26:01;;;;;;;18.20;3.03;;;2.30;99.90;;;;;;5001105;28;20030;-85
2023/03/15 03:28:31;;;;;;;17.67;3.72;;;2.30;99.90;;;;;;4999719;28;20583;-90
2023/03/15 03:30:57;;;;;;;24.58;4.07;;;2.40;99.90;;;;;;5008397;28;20029;-85
2023/03/15 03:33:25;;;;;;;29.92;3.83;;;2.40;99.90;;;;;;5006082;28;20489;-83
2023/03/15 03:35:50;;;;;;;18.13;2.83;;;2.30;99.90;;;;;;5003499;28;20093;-86
2023/03/15 03:38:16;;;;;;;16.60;3.33;;;2.40;99.90;;;;;;5008671;28;20146;-89
2023/03/15 03:40:42;;;;;;;21.60;5.03;;;2.40;99.90;;;;;;5003889;28;20053;-82
2023/03/15 03:43:08;;;;;;;30.15;3.35;;;2.40;99.90;;;;;;5001802;28;20079;-82
2023/03/15 03:45:35;;;;;;;17.65;3.83;;;2.40;99.90;;;;;;5012631;28;20026;-80
2023/03/15 03:48:01;;;;;;;20.10;4.00;;;2.40;99.90;;;;;;5025009;28;20393;-86
2023/03/15 03:50:27;;;;;;;21.15;3.33;;;2.40;99.90;;;;;;5005497;28;20037;-92
2023/03/15 03:52:53;;;;;;;19.67;2.80;;;2.40;99.90;;;;;;5011863;28;20029;-81
2023/03/15 03:55:18;;;;;;;17.92;3.72;;;2.40;99.90;;;;;;5011038;28;20421;-83
2023/03/15 03:57:44;;;;;;;21.25;3.42;;;2.50;99.90;;;;;;5002087;28;20470;-79
2023/03/15 04:00:13;;;;;;;19.35;3.17;;;2.40;99.90;;;;;;4996959;28;20029;-79
2023/03/15 04:02:41;;;;;;;33.58;3.80;;;2.40;99.90;;;;;;5005552;28;20025;-79
2023/03/15 04:05:08;;;;;;;25.85;3.13;;;2.50;99.90;;;;;;5013893;28;20029;-85
2023/03/15 04:07:34;;;;;;;21.95;3.92;;;2.50;99.90;;;;;;5011519;28;20053;-80
2023/03/15 04:10:01;;;;;;;26.23;4.90;;;2.50;99.90;;;;;;5013590;28;20029;-86
2023/03/15 04:12:27;;;;;;;16.27;3.17;;;2.60;99.90;;;;;;5003119;28;20022;-92
2023/03/15 04:14:53;;;;;;;23.98;3.15;;;2.50;99.90;;;;;;5003930;28;20034;-85
2023/03/15 04:17:18;;;;;;;6.70;2.45;;;2.50;99.90;;;;;;5000957;28;20029;-80
2023/03/15 04:19:47;;;;;;;18.20;3.20;;;2.60;99.90;;;;;;5013698;28;20363;-79
2023/03/15 04:22:15;;;;;;;18.13;3.95;;;2.60;99.90;;;;;;5000032;28;20087;-84
2023/03/15 04:24:41;;;;;;;21.60;3.72;;;2.50;99.90;;;;;;4983407;28;20028;-86
2023/03/15 04:27:07;;;;;;;19.75;3.97;;;2.50;99.90;;;;;;4996833;28;20042;-78
2023/03/15 04:29:33;;;;;;;15.35;3.58;;;2.50;99.90;;;;;;4998722;28;20030;-79
2023/03/15 04:32:00;;;;;;;11.98;2.80;;;2.50;99.90;;;;;;5004779;28;20030;-80
2023/03/15 04:34:30;;;;;;;18.23;3.13;;;2.50;99.90;;;;;;5002790;28;20038;-86
2023/03/15 04:36:57;;;;;;;19.08;3.55;;;2.50;99.90;;;;;;5002210;28;20045;-82
2023/03/15 04:39:25;;;;;;;14.20;3.10;;;2.50;99.90;;;;;;5007762;28;20025;-81
2023/03/15 04:41:51;;;;;;;19.95;3.63;;;2.50;99.90;;;;;;5006289;28;20053;-79
2023/03/15 04:44:16;;;;;;;18.48;2.47;;;2.40;99.90;;;;;;5025873;28;20065;-77
2023/03/15 04:46:42;;;;;;;14.07;2.65;;;2.40;99.90;;;;;;5008886;28;20445;-86
2023/03/15 04:49:08;;;;;;;15.90;3.70;;;2.40;99.90;;;;;;5006687;28;20403;-81
2023/03/15 04:51:34;;;;;;;17.58;3.65;;;2.40;99.90;;;;;;5023157;28;20020;-86
2023/03/15 04:54:00;;;;;;;10.30;3.05;;;2.40;99.90;;;;;;5008775;28;20026;-81
2023/03/15 04:56:36;;;;;;;5.15;2.17;;;2.40;99.90;;;;;;5009260;28;20237;-80
2023/03/15 04:59:02;;;;;;;9.23;1.98;;;2.50;99.90;;;;;;5011181;28;20053;-84
2023/03/15 05:01:30;;;;;;;5.13;1.58;;;2.40;99.90;;;;;;4993333;28;20049;-82
2023/03/15 05:03:57;;;;;;;8.57;2.38;;;2.40;99.90;;;;;;5000148;28;20100;-82
2023/03/15 05:06:23;;;;;;;6.90;2.05;;;2.40;99.90;;;;;;5001582;28;20054;-82
2023/03/15 05:08:48;;;;;;;9.55;2.30;;;2.40;99.90;;;;;;5000691;28;20037;-81
2023/03/15 05:11:14;;;;;;;7.72;1.95;;;2.40;99.90;;;;;;5002677;28;20026;-83
2023/03/15 05:13:39;;;;;;;4.43;2.15;;;2.40;99.90;;;;;;5004444;28;20122;-81
2023/03/15 05:16:05;;;;;;;5.30;2.00;;;2.40;99.90;;;;;;4999578;28;20346;-82
2023/03/15 05:18:31;;;;;;;5.00;2.10;;;2.40;99.90;;;;;;5003042;28;20025;-80
2023/03/15 05:20:56;;;;;;;6.43;1.98;;;2.40;99.90;;;;;;5026244;28;20014;-87
2023/03/15 05:23:23;;;;;;;8.50;3.65;;;2.40;99.90;;;;;;5006586;28;20117;-87
2023/03/15 05:25:53;;;;;;;7.90;3.33;;;2.40;99.90;;;;;;5002430;28;20026;-84
2023/03/15 05:28:23;;;;;;;10.15;4.47;;;2.40;99.90;;;;;;5004739;28;21167;-84
2023/03/15 05:30:53;;;;;;;6.32;3.25;;;2.30;99.90;;;;;;5003876;28;20033;-83
2023/03/15 05:33:20;;;;;;;16.90;6.22;;;2.30;99.90;;;;;;5008665;28;20025;-84
2023/03/15 05:35:47;;;;;;;5.75;3.05;;;2.30;99.90;;;;;;4999823;28;20029;-84
2023/03/15 05:38:13;;;;;;;8.00;3.60;;;2.30;99.90;;;;;;5005539;28;20045;-83
2023/03/15 05:40:41;;;;;;;8.00;3.28;;;2.30;99.90;;;;;;5011636;28;20033;-81
2023/03/15 05:43:07;;;;;;;10.68;3.42;;;2.30;99.90;;;;;;5004443;28;20066;-86
2023/03/15 05:45:33;;;;;;;7.53;3.08;;;2.30;99.90;;;;;;4998618;28;20068;-85
2023/03/15 05:47:59;;;;;;;4.80;2.88;;;2.30;99.90;;;;;;5002884;28;20066;-80
2023/03/15 05:50:24;;;;;;;7.43;3.17;;;2.20;99.90;;;;;;5010661;28;20060;-87
2023/03/15 05:52:50;;;;;;;3.92;2.20;;;2.20;99.90;;;;;;5015548;28;20033;-83
2023/03/15 05:55:16;;;;;;;5.15;2.53;;;2.20;99.90;;;;;;5008223;28;20018;-87
2023/03/15 05:57:42;;;;;;;3.35;2.00;;;2.30;99.90;;;;;;5014340;28;20112;-85
2023/03/15 06:00:09;;;;;;;8.15;2.15;;;2.30;99.90;;;;;;5005230;28;20403;-83
2023/03/15 06:02:34;;;;;;;3.85;1.63;;;2.30;99.90;;;;;;5013034;28;20030;-84
2023/03/15 06:05:00;;;;;;;3.55;1.92;;;2.30;99.90;;;;;;5008648;28;20074;-85
2023/03/15 06:07:26;;;;;;;1.48;1.38;;;2.30;99.90;;;;;;5044584;28;20042;-86
2023/03/15 06:09:52;;;;;;;2.78;2.50;;;2.30;99.90;;;;;;5019427;28;20025;-90
2023/03/15 06:12:18;;;;;;;1.60;1.50;;;2.30;99.90;;;;;;5019010;28;20030;-82
2023/03/15 06:14:44;;;;;;;4.10;1.77;;;2.30;99.90;;;;;;5054880;28;20385;-86
2023/03/15 06:17:10;;;;;;;2.95;1.67;;;2.40;99.90;;;;;;5020791;28;20100;-85
2023/03/15 06:19:35;;;;;;;2.53;1.58;;;2.40;99.90;;;;;;5043021;28;20026;-83
2023/03/15 06:22:02;;;;;;;1.80;1.67;;;2.40;99.90;;;;;;5008323;28;20053;-86
2023/03/15 06:24:28;;;;;;;5.47;2.03;;;2.40;99.90;;;;;;4999977;28;20382;-86
2023/03/15 06:26:55;;;;;;;2.25;1.63;;;2.40;99.90;;;;;;5006633;28;20034;-84
2023/03/15 06:29:21;;;;;;;1.58;1.40;;;2.40;99.90;;;;;;5002667;28;20026;-88
2023/03/15 06:31:49;;;;;;;2.55;1.70;;;2.40;99.90;;;;;;5004209;28;20489;-86
2023/03/15 06:34:16;;;;;;;3.60;1.60;;;2.40;99.90;;;;;;4996207;28;20061;-86
2023/03/15 06:36:41;;;;;;;2.15;1.92;;;2.40;99.90;;;;;;5023435;28;20057;-89
2023/03/15 06:39:10;;;;;;;3.30;2.05;;;2.40;99.90;;;;;;5003153;28;20061;-87
2023/03/15 06:41:35;;;;;;;2.13;1.88;;;2.40;99.90;;;;;;5011275;28;20046;-84
2023/03/15 06:44:01;;;;;;;8.77;4.15;;;2.40;99.90;;;;;;5014375;28;20129;-84
2023/03/15 06:46:26;;;;;;;3.45;1.75;;;2.50;99.90;;;;;;5008862;28;20022;-86
2023/03/15 06:48:52;;;;;;;3.75;1.83;;;2.50;99.90;;;;;;5047114;28;20508;-86
2023/03/15 06:51:18;;;;;;;3.38;2.10;;;2.50;99.90;;;;;;5047281;28;20020;-87
2023/03/15 06:53:43;;;;;;;1.77;1.67;;;2.60;99.90;;;;;;5003701;28;20485;-86
2023/03/15 06:56:09;;;;;;;2.67;1.77;;;2.60;99.90;;;;;;5007279;28;20033;-79
2023/03/15 06:58:34;;;;;;;4.63;2.20;;;2.70;99.90;;;;;;5011379;28;20041;-86
2023/03/15 07:01:00;;;;;;;5.43;1.98;;;2.70;99.90;;;;;;4996015;28;20053;-86
2023/03/15 07:03:28;;;;;;;2.30;1.80;;;2.80;99.90;;;;;;5031508;28;20132;-87
2023/03/15 07:05:54;;;;;;;3.45;2.05;;;2.80;99.90;;;;;;5004851;28;20032;-87
2023/03/15 07:08:21;;;;;;;4.47;1.90;;;2.90;99.90;;;;;;5021012;28;20128;-85
2023/03/15 07:10:49;;;;;;;6.28;2.00;;;2.90;99.90;;;;;;5015806;28;20053;-93
2023/03/15 07:13:15;;;;;;;2.50;1.85;;;2.90;99.90;;;;;;5045875;28;20033;-87
2023/03/15 07:15:41;;;;;;;4.78;1.92;;;2.90;99.90;;;;;;5020895;28;20142;-83
2023/03/15 07:18:07;;;;;;;2.90;1.70;;;2.90;99.90;;;;;;5052049;28;20065;-86
2023/03/15 07:20:33;;;;;;;2.85;2.05;;;2.90;99.90;;;;;;5060375;28;20050;-82
2023/03/15 07:22:58;;;;;;;2.55;1.98;;;2.90;99.90;;;;;;5008866;28;20424;-85
2023/03/15 07:25:24;;;;;;;3.75;2.03;;;3.00;99.90;;;;;;5036886;28;20072;-85
2023/03/15 07:27:51;;;;;;;2.65;1.90;;;2.90;99.90;;;;;;5023170;28;20046;-84
2023/03/15 07:30:18;;;;;;;3.33;2.03;;;2.90;99.90;;;;;;5032912;28;20022;-79
2023/03/15 07:32:44;;;;;;;8.85;2.55;;;3.00;99.90;;;;;;5002456;28;20054;-86
2023/03/15 07:35:10;;;;;;;4.72;2.85;;;3.00;99.90;;;;;;5028380;28;20060;-81
2023/03/15 07:37:36;;;;;;;3.03;2.08;;;3.00;99.90;;;;;;5002647;28;20022;-83
2023/03/15 07:40:02;;;;;;;5.15;2.95;;;3.00;99.90;;;;;;5008983;28;20025;-83
2023/03/15 07:42:27;;;;;;;12.20;7.13;;;3.00;99.90;;;;;;5010878;28;20025;-88
2023/03/15 07:44:53;;;;;;;12.45;6.68;;;3.00;99.90;;;;;;5012779;28;20016;-86
2023/03/15 07:47:19;;;;;;;8.25;3.03;;;3.00;99.90;;;;;;5012289;28;20196;-83
2023/03/15 07:49:44;;;;;;;8.13;2.75;;;3.10;99.90;;;;;;5030756;28;20024;-81
2023/03/15 07:52:10;;;;;;;3.55;2.25;;;3.20;99.90;;;;;;5031673;28;20022;-84
2023/03/15 07:54:35;;;;;;;3.67;2.10;;;3.30;99.90;;;;;;5009297;28;20276;-81
2023/03/15 07:57:01;;;;;;;5.68;2.17;;;3.40;99.90;;;;;;5013604;28;20009;-82
2023/03/15 07:59:27;;;;;;;6.75;1.95;;;3.50;99.90;;;;;;5025017;28;20098;-83
2023/03/15 08:01:52;;;;;;;2.47;2.00;;;3.60;99.90;;;;;;5004059;28;20028;-84
2023/03/15 08:04:18;;;;;;;5.20;1.52;;;3.70;99.90;;;;;;5012731;28;20381;-79
2023/03/15 08:06:43;;;;;;;10.27;1.75;;;3.80;99.90;;;;;;5010079;28;20424;-83
2023/03/15 08:09:10;;;;;;;4.40;1.40;;;3.80;99.90;;;;;;5011296;28;20026;-85
2023/03/15 08:11:36;;;;;;;4.30;1.50;;;3.80;99.90;;;;;;5012288;28;20022;-84
2023/03/15 08:14:05;;;;;;;2.80;1.40;;;3.80;99.90;;;;;;5029745;28;20022;-91
2023/03/15 08:16:30;;;;;;;6.57;1.90;;;3.80;99.90;;;;;;5008951;28;20046;-83
2023/03/15 08:18:56;;;;;;;10.50;1.70;;;3.70;99.90;;;;;;5009959;28;20022;-82
2023/03/15 08:21:21;;;;;;;8.57;1.83;;;3.70;99.90;;;;;;5013483;28;21202;-84
2023/03/15 08:23:47;;;;;;;2.97;1.50;;;3.70;99.90;;;;;;5012739;28;20262;-87
2023/03/15 08:26:12;;;;;;;1.80;1.38;;;3.60;99.90;;;;;;4995635;28;20022;-84
2023/03/15 08:28:38;;;;;;;3.38;1.73;;;3.60;99.90;;;;;;5052366;28;20372;-82
2023/03/15 08:31:08;;;;;;;1.55;1.45;;;3.60;99.90;;;;;;5014756;28;20022;-82
2023/03/15 08:33:34;;;;;;;5.45;1.73;;;3.60;99.90;;;;;;5006885;28;20041;-84
2023/03/15 08:36:00;;;;;;;8.38;1.80;;;3.50;99.90;;;;;;5011652;28;20038;-85
2023/03/15 08:38:29;;;;;;;8.07;1.92;;;3.50;99.90;;;;;;5023423;28;20627;-80
2023/03/15 08:40:58;;;;;;;3.15;1.63;;;3.50;99.90;;;;;;5008693;28;20096;-84
2023/03/15 08:43:24;;;;;;;9.23;2.65;;;3.60;99.90;;;;;;5014138;28;20024;-85
2023/03/15 08:45:52;;;;;;;3.90;1.80;;;3.50;99.90;;;;;;5003352;28;20025;-81
2023/03/15 08:48:17;;;;;;;8.50;2.28;;;3.60;99.90;;;;;;5005729;28;20102;-82
2023/03/15 08:50:43;;;;;;;7.78;2.10;;;3.60;99.90;;;;;;5016901;28;20484;-82
2023/03/15 08:53:09;;;;;;;4.68;1.90;;;3.60;99.90;;;;;;5024362;28;20052;-82
2023/03/15 08:55:36;;;;;;;7.75;2.42;;;3.60;99.90;;;;;;5023455;28;20382;-83
2023/03/15 08:58:03;;;;;;;7.00;1.63;;;3.50;99.90;;;;;;5049009;28;20576;-85
2023/03/15 09:00:29;;;;;;;12.10;1.92;;;3.60;99.90;;;;;;5003944;28;20366;-83
2023/03/15 09:02:55;;;;;;;3.95;1.73;;;3.60;99.90;;;;;;5020540;28;20387;-82
2023/03/15 09:05:24;;;;;;;7.07;2.03;;;3.60;99.90;;;;;;5015247;28;20030;-83
2023/03/15 09:07:51;;;;;;;12.45;1.83;;;3.60;99.90;;;;;;5020123;28;20050;-86
2023/03/15 09:10:18;;;;;;;10.77;2.00;;;3.70;99.90;;;;;;5050792;28;20022;-85
2023/03/15 09:13:34;;;;;;;6.03;2.55;;;3.70;99.90;;;;;;5078463;28;20405;-88
2023/03/15 09:15:59;;;;;;;4.53;1.67;;;3.80;99.90;;;;;;5075302;28;20020;-84
2023/03/15 09:18:26;;;;;;;2.53;1.70;;;3.80;99.90;;;;;;5074279;28;20028;-89
2023/03/15 09:20:52;;;;;;;2.00;1.48;;;3.80;99.90;;;;;;5067587;28;20070;-86
2023/03/15 09:23:17;;;;;;;11.68;1.70;;;3.90;99.90;;;;;;5081826;28;20528;-86
2023/03/15 09:25:43;;;;;;;4.95;1.63;;;4.00;99.90;;;;;;5076787;28;20061;-82
2023/03/15 09:28:10;;;;;;;2.65;1.25;;;4.10;99.90;;;;;;5079391;28;20488;-86
2023/03/15 09:30:39;;;;;;;4.22;1.50;;;4.00;99.90;;;;;;5078703;28;20020;-85
2023/03/15 09:33:06;;;;;;;4.00;1.42;;;4.10;99.90;;;;;;5077565;28;20029;-89
2023/03/15 09:35:32;;;;;;;2.05;1.33;;;4.00;99.90;;;;;;5076898;28;20024;-87
2023/03/15 09:37:57;;;;;;;3.08;1.30;;;4.00;99.90;;;;;;5078913;28;20023;-87
2023/03/15 09:40:33;;;;;;;6.70;1.60;;;4.10;99.90;;;;;;5079036;28;20020;-83
2023/03/15 09:43:05;;;;;;;2.63;1.52;;;4.20;99.90;;;;;;5069925;28;20055;-87
2023/03/15 09:46:18;;;;;;;4.60;1.25;;;4.20;99.90;;;;;;5080843;28;20032;-86
2023/03/15 09:49:00;;;;;;;6.72;1.77;;;4.10;99.90;;;;;;5054875;28;20029;-84
2023/03/15 09:52:10;;;;;;;4.10;1.85;;;4.10;99.90;;;;;;5084935;28;20064;-83
2023/03/15 09:54:48;;;;;;;6.43;1.73;;;4.20;99.90;;;;;;5066227;28;20040;-86
2023/03/15 09:57:37;;;;;;;3.55;1.45;;;4.10;99.90;;;;;;5067104;28;20021;-88
2023/03/15 10:00:10;;;;;;;5.80;1.58;;;4.20;99.90;;;;;;5061125;28;20431;-90
2023/03/15 10:02:47;;;;;;;11.93;2.47;;;4.20;99.90;;;;;;5076192;28;20070;-93
2023/03/15 10:05:21;;;;;;;10.93;3.03;;;4.20;99.90;;;;;;5069250;28;20045;-83
2023/03/15 10:07:47;;;;;;;4.45;1.88;;;4.30;99.90;;;;;;5081084;28;20028;-90
2023/03/15 10:10:20;;;;;;;7.55;2.80;;;4.40;99.90;;;;;;5074017;28;20546;-88
2023/03/15 10:12:55;;;;;;;6.18;2.00;;;4.40;99.90;;;;;;5069551;28;20230;-92
2023/03/15 10:15:46;;;;;;;8.80;2.05;;;4.50;99.90;;;;;;5068818;28;20107;-90
2023/03/15 10:18:45;;;;;;;7.88;2.47;;;4.50;99.90;;;;;;5070466;28;20047;-90
2023/03/15 10:21:41;;;;;;;8.85;2.63;;;4.40;99.90;;;;;;5076715;28;20254;-90
2023/03/15 10:24:35;;;;;;;11.47;3.03;;;4.30;99.90;;;;;;5007907;28;20033;-90
2023/03/15 10:27:13;;;;;;;5.88;2.30;;;4.30;99.90;;;;;;5054148;28;20289;-85
2023/03/15 10:29:39;;;;;;;6.60;2.28;;;4.40;99.90;;;;;;5066671;28;20020;-85
2023/03/15 10:32:13;;;;;;;7.18;1.77;;;4.40;99.90;;;;;;5066864;28;20055;-84
2023/03/15 10:34:39;;;;;;;7.28;2.15;;;4.50;99.90;;;;;;5055566;28;20490;-89
2023/03/15 10:37:08;;;;;;;11.07;2.38;;;4.40;99.90;;;;;;5066569;28;20093;-83
2023/03/15 10:39:34;;;;;;;9.63;2.20;;;4.50;99.90;;;;;;5055107;28;20098;-83
2023/03/15 10:41:59;;;;;;;3.28;1.55;;;4.50;99.90;;;;;;5057307;28;20071;-87
2023/03/15 10:44:27;;;;;;;5.85;1.85;;;4.50;99.90;;;;;;5056664;28;20074;-80
2023/03/15 10:47:06;;;;;;;5.35;2.15;;;4.60;99.90;;;;;;5051852;28;20038;-83
2023/03/15 10:49:34;;;;;;;5.30;1.80;;;4.80;99.90;;;;;;5049571;28;20055;-82
2023/03/15 10:52:00;;;;;;;15.35;2.10;;;4.80;99.90;;;;;;5057752;28;20368;-88
2023/03/15 10:54:26;;;;;;;9.77;2.42;;;4.90;99.90;;;;;;5062522;28;20035;-89
2023/03/15 10:57:11;;;;;;;10.40;2.35;;;4.80;99.90;;;;;;5059737;28;20024;-90
2023/03/15 11:00:05;;;;;;;5.18;1.95;;;4.80;99.90;;;;;;5054127;28;20099;-93
2023/03/15 11:02:32;;;;;;;11.13;2.83;;;4.70;99.90;;;;;;5050411;28;20112;-87
2023/03/15 11:05:00;;;;;;;9.30;1.92;;;4.70;99.90;;;;;;5058545;28;20473;-90
2023/03/15 11:07:26;;;;;;;5.00;2.15;;;4.60;99.90;;;;;;5056304;28;20115;-87
2023/03/15 11:09:57;;;;;;;6.15;2.10;;;4.50;99.90;;;;;;5057171;28;20480;-88
2023/03/15 11:12:27;;;;;;;7.50;2.30;;;4.60;99.90;;;;;;5059243;28;20098;-85
2023/03/15 11:15:03;;;;;;;7.38;2.35;;;4.60;99.90;;;;;;5055070;28;20029;-87
2023/03/15 11:17:33;;;;;;;4.82;2.05;;;4.60;99.90;;;;;;5057227;28;20469;-83
2023/03/15 11:20:11;;;;;;;7.97;2.20;;;4.60;99.90;;;;;;5060173;28;20029;-85
2023/03/15 11:22:37;;;;;;;6.57;2.10;;;4.70;99.90;;;;;;5063181;28;20024;-90
2023/03/15 11:25:03;;;;;;;12.25;2.45;;;4.80;99.90;;;;;;5058621;28;20031;-92
2023/03/15 11:27:30;;;;;;;8.60;2.30;;;4.90;99.90;;;;;;5066609;28;20025;-84
2023/03/15 11:29:58;;;;;;;7.32;2.38;;;5.10;99.90;;;;;;5058012;28;20039;-88
2023/03/15 11:32:27;;;;;;;10.30;2.53;;;5.20;99.90;;;;;;5063201;28;20109;-86
2023/03/15 11:35:05;;;;;;;11.20;2.72;;;5.20;99.90;;;;;;5049075;28;20055;-87
2023/03/15 11:37:38;;;;;;;15.02;2.42;;;5.20;99.90;;;;;;5056755;28;20036;-88
2023/03/15 11:40:20;;;;;;;17.95;3.08;;;5.10;99.90;;;;;;5067520;28;20013;-88
2023/03/15 11:43:00;;;;;;;7.03;2.50;;;5.10;99.90;;;;;;5054754;28;20052;-88
2023/03/15 11:45:47;;;;;;;15.57;3.55;;;5.00;99.90;;;;;;5042391;28;20033;-86
2023/03/15 11:48:24;;;;;;;4.82;2.17;;;5.10;99.90;;;;;;5046562;28;20087;-86
2023/03/15 11:50:57;;;;;;;13.90;3.30;;;5.00;99.90;;;;;;5061912;28;20024;-87
2023/03/15 11:53:29;;;;;;;9.52;2.45;;;5.00;99.90;;;;;;5054234;28;20059;-87
2023/03/15 11:55:57;;;;;;;8.55;2.67;;;5.00;99.90;;;;;;5058806;28;20023;-82
2023/03/15 11:58:33;;;;;;;19.45;3.03;;;5.00;99.90;;;;;;5063523;28;20024;-90
2023/03/15 12:01:06;;;;;;;9.48;2.90;;;5.10;99.90;;;;;;5055871;28;20041;-89
2023/03/15 12:03:42;;;;;;;5.90;2.35;;;5.20;99.90;;;;;;5065530;28;20078;-86
2023/03/15 12:06:17;;;;;;;;;;;5.20;99.90;;;;;;5064057;28;20027;-86
2023/03/15 12:08:49;;;;;;;9.10;2.15;;;5.20;99.90;;;;;;5062121;28;19905;-88
2023/03/15 12:11:21;;;;;;;14.60;2.60;;;5.20;99.90;;;;;;5064804;28;20404;-86
2023/03/15 12:13:55;;;;;;;17.35;2.42;;;5.10;99.90;;;;;;5056622;28;20025;-86
2023/03/15 12:16:22;;;;;;;9.52;2.33;;;4.80;99.90;;;;;;5065893;28;20059;-89
2023/03/15 12:18:49;;;;;;;14.07;2.30;;;4.70;99.90;;;;;;5061950;28;20021;-85
2023/03/15 12:21:22;;;;;;;13.07;2.78;;;4.50;99.90;;;;;;5061297;28;20061;-88
2023/03/15 12:23:57;;;;;;;8.80;2.20;;;4.50;99.90;;;;;;5066665;28;20052;-88
2023/03/15 12:26:41;;;;;;;8.52;2.13;;;4.40;99.90;;;;;;5058055;28;20029;-88
2023/03/15 12:29:20;;;;;;;5.60;2.10;;;4.50;99.90;;;;;;5058973;28;20025;-86
2023/03/15 12:31:57;;;;;;;12.30;2.20;;;4.50;99.90;;;;;;5066218;28;20043;-85
2023/03/15 12:34:29;;;;;;;8.73;2.33;;;4.80;99.90;;;;;;5043625;28;20115;-89
2023/03/15 12:37:00;;;;;;;14.18;2.35;;;5.10;99.90;;;;;;5040209;28;20064;-88
2023/03/15 12:39:49;;;;;;;15.98;3.15;;;5.30;99.90;;;;;;5042352;28;20028;-90
2023/03/15 12:42:56;;;;;;;10.88;2.20;;;5.40;99.90;;;;;;5046087;28;20051;-85
2023/03/15 12:45:35;;;;;;;19.70;3.50;;;5.50;99.90;;;;;;5041015;28;20040;-86
2023/03/15 12:48:00;;;;;;;6.13;1.77;;;5.50;99.90;;;;;;5045815;28;20060;-87
2023/03/15 12:50:42;;;;;;;13.90;2.90;;;5.50;99.90;;;;;;5049516;28;20048;-82
2023/03/15 12:53:38;;;;;;;20.98;3.15;;;5.40;99.90;;;;;;5054384;28;20132;-85
2023/03/15 12:56:44;;;;;;;8.18;2.78;;;5.00;99.90;;;;;;5048743;28;20037;-87
2023/03/15 12:59:27;;;;;;;14.33;2.90;;;4.70;99.90;;;;;;5053697;28;20029;-87
2023/03/15 13:01:53;;;;;;;11.02;2.63;;;4.40;99.90;;;;;;5050160;28;20040;-89
2023/03/15 13:04:20;;;;;;;10.65;2.88;;;4.30;99.90;;;;;;5064887;28;20031;-90